sensor_id;sensor_type;location;lat;lon;timestamp;pressure;altitude;pressure_sealevel;temperature;humidity
60337;BME280;46978;50.288;28.624;2023-04-21T00:00:07;98639.27;;;5.64;76.96
60337;BME280;46978;50.288;28.624;2023-04-21T00:01:10;98641.86;;;5.63;76.98
60337;BME280;46978;50.288;28.624;2023-04-21T00:02:12;98637.58;;;5.60;77.31
60337;BME280;46978;50.288;28.624;2023-04-21T00:03:14;98639.34;;;5.56;77.62
60337;BME280;46978;50.288;28.624;2023-04-21T00:04:17;98645.34;;;5.55;77.89
60337;BME280;46978;50.288;28.624;2023-04-21T00:05:19;98644.53;;;5.52;77.51
60337;BME280;46978;50.288;28.624;2023-04-21T00:06:21;98643.71;;;5.45;77.60
60337;BME280;46978;50.288;28.624;2023-04-21T00:07:22;98650.60;;;5.43;77.68
60337;BME280;46978;50.288;28.624;2023-04-21T00:08:24;98642.91;;;5.40;77.84
60337;BME280;46978;50.288;28.624;2023-04-21T00:09:26;98642.09;;;5.36;78.05
60337;BME280;46978;50.288;28.624;2023-04-21T00:10:28;98636.99;;;5.32;78.19
60337;BME280;46978;50.288;28.624;2023-04-21T00:11:30;98639.59;;;5.29;78.30
60337;BME280;46978;50.288;28.624;2023-04-21T00:12:32;98642.19;;;5.26;78.44
60337;BME280;46978;50.288;28.624;2023-04-21T00:13:34;98644.78;;;5.23;78.69
60337;BME280;46978;50.288;28.624;2023-04-21T00:14:36;98641.41;;;5.17;79.00
60337;BME280;46978;50.288;28.624;2023-04-21T00:15:38;98646.56;;;5.16;79.11
60337;BME280;46978;50.288;28.624;2023-04-21T00:16:40;98644.02;;;5.13;79.21
60337;BME280;46978;50.288;28.624;2023-04-21T00:17:43;98647.44;;;5.12;79.19
60337;BME280;46978;50.288;28.624;2023-04-21T00:18:44;98647.45;;;5.10;79.53
60337;BME280;46978;50.288;28.624;2023-04-21T00:19:47;98642.32;;;5.09;79.66
60337;BME280;46978;50.288;28.624;2023-04-21T00:20:49;98640.61;;;5.06;79.36
60337;BME280;46978;50.288;28.624;2023-04-21T00:21:51;98638.93;;;5.05;79.97
60337;BME280;46978;50.288;28.624;2023-04-21T00:22:53;98643.22;;;5.01;79.99
60337;BME280;46978;50.288;28.624;2023-04-21T00:23:55;98643.22;;;5.01;80.37
60337;BME280;46978;50.288;28.624;2023-04-21T00:24:57;98646.69;;;4.99;80.25
60337;BME280;46978;50.288;28.624;2023-04-21T00:25:58;98650.98;;;4.95;80.25
60337;BME280;46978;50.288;28.624;2023-04-21T00:27:00;98653.57;;;4.92;80.47
60337;BME280;46978;50.288;28.624;2023-04-21T00:28:02;98647.59;;;4.90;80.61
60337;BME280;46978;50.288;28.624;2023-04-21T00:29:04;98647.62;;;4.87;80.78
60337;BME280;46978;50.288;28.624;2023-04-21T00:30:06;98647.64;;;4.84;80.91
60337;BME280;46978;50.288;28.624;2023-04-21T00:31:08;98639.95;;;4.79;81.18
60337;BME280;46978;50.288;28.624;2023-04-21T00:32:10;98639.95;;;4.79;81.18
60337;BME280;46978;50.288;28.624;2023-04-21T00:33:12;98643.38;;;4.78;81.33
60337;BME280;46978;50.288;28.624;2023-04-21T00:34:13;98644.27;;;4.77;81.58
60337;BME280;46978;50.288;28.624;2023-04-21T00:35:15;98644.27;;;4.76;81.56
60337;BME280;46978;50.288;28.624;2023-04-21T00:36:17;98646.86;;;4.73;81.64
60337;BME280;46978;50.288;28.624;2023-04-21T00:37:19;98640.86;;;4.71;81.88
60337;BME280;46978;50.288;28.624;2023-04-21T00:38:21;98644.31;;;4.70;82.01
60337;BME280;46978;50.288;28.624;2023-04-21T00:39:23;98645.17;;;4.67;81.82
60337;BME280;46978;50.288;28.624;2023-04-21T00:40:24;98646.91;;;4.65;82.39
60337;BME280;46978;50.288;28.624;2023-04-21T00:41:28;98643.47;;;4.63;83.67
60337;BME280;46978;50.288;28.624;2023-04-21T00:42:30;98652.91;;;4.61;84.02
60337;BME280;46978;50.288;28.624;2023-04-21T00:43:32;98646.07;;;4.57;83.14
60337;BME280;46978;50.288;28.624;2023-04-21T00:44:34;98643.53;;;4.51;82.87
60337;BME280;46978;50.288;28.624;2023-04-21T00:45:37;98645.28;;;4.45;83.49
60337;BME280;46978;50.288;28.624;2023-04-21T00:46:39;98641.02;;;4.41;84.59
60337;BME280;46978;50.288;28.624;2023-04-21T00:47:43;98640.20;;;4.35;84.45
60337;BME280;46978;50.288;28.624;2023-04-21T00:48:46;98643.64;;;4.29;84.09
60337;BME280;46978;50.288;28.624;2023-04-21T00:49:47;98641.09;;;4.24;84.89
60337;BME280;46978;50.288;28.624;2023-04-21T00:50:50;98638.55;;;4.20;85.33
60337;BME280;46978;50.288;28.624;2023-04-21T00:51:52;98642.86;;;4.15;85.68
60337;BME280;46978;50.288;28.624;2023-04-21T00:52:55;98640.29;;;4.13;86.74
60337;BME280;46978;50.288;28.624;2023-04-21T00:53:59;98637.74;;;4.08;87.02
60337;BME280;46978;50.288;28.624;2023-04-21T00:55:02;98635.19;;;4.05;88.42
60337;BME280;46978;50.288;28.624;2023-04-21T00:56:05;98637.76;;;4.04;88.06
60337;BME280;46978;50.288;28.624;2023-04-21T00:57:07;98642.05;;;4.03;88.45
60337;BME280;46978;50.288;28.624;2023-04-21T00:58:08;98641.17;;;4.03;88.62
60337;BME280;46978;50.288;28.624;2023-04-21T00:59:10;98645.46;;;4.02;88.75
60337;BME280;46978;50.288;28.624;2023-04-21T01:00:13;98640.33;;;4.04;88.60
60337;BME280;46978;50.288;28.624;2023-04-21T01:01:15;98644.62;;;4.03;88.71
60337;BME280;46978;50.288;28.624;2023-04-21T01:02:17;98640.33;;;4.02;88.16
60337;BME280;46978;50.288;28.624;2023-04-21T01:03:19;98642.05;;;4.02;88.15
60337;BME280;46978;50.288;28.624;2023-04-21T01:04:21;98632.64;;;3.99;88.39
60337;BME280;46978;50.288;28.624;2023-04-21T01:05:23;98636.05;;;3.98;88.28
60337;BME280;46978;50.288;28.624;2023-04-21T01:06:27;98634.38;;;3.94;87.75
60337;BME280;46978;50.288;28.624;2023-04-21T01:07:29;98635.23;;;3.90;87.45
60337;BME280;46978;50.288;28.624;2023-04-21T01:08:32;98631.00;;;3.84;87.39
60337;BME280;46978;50.288;28.624;2023-04-21T01:09:33;98631.00;;;3.84;87.39
60337;BME280;46978;50.288;28.624;2023-04-21T01:10:35;98632.70;;;3.81;87.09
60337;BME280;46978;50.288;28.624;2023-04-21T01:11:37;98627.58;;;3.76;87.47
60337;BME280;46978;50.288;28.624;2023-04-21T01:12:44;98628.46;;;3.72;87.54
60337;BME280;46978;50.288;28.624;2023-04-21T01:13:46;98630.16;;;3.70;88.00
60337;BME280;46978;50.288;28.624;2023-04-21T01:14:48;98631.88;;;3.66;88.28
60337;BME280;46978;50.288;28.624;2023-04-21T01:15:50;98635.30;;;3.65;89.26
60337;BME280;46978;50.288;28.624;2023-04-21T01:16:53;98634.45;;;3.63;89.93
60337;BME280;46978;50.288;28.624;2023-04-21T01:17:55;98630.17;;;3.62;90.26
60337;BME280;46978;50.288;28.624;2023-04-21T01:18:57;98627.61;;;3.59;90.67
60337;BME280;46978;50.288;28.624;2023-04-21T01:20:00;98631.90;;;3.57;90.04
60337;BME280;46978;50.288;28.624;2023-04-21T01:21:03;98625.94;;;3.52;89.44
60337;BME280;46978;50.288;28.624;2023-04-21T01:22:11;98625.06;;;3.48;90.89
60337;BME280;46978;50.288;28.624;2023-04-21T01:23:12;98626.78;;;3.48;91.58
60337;BME280;46978;50.288;28.624;2023-04-21T01:24:14;98632.76;;;3.48;92.23
60337;BME280;46978;50.288;28.624;2023-04-21T01:25:15;98629.34;;;3.48;91.73
60337;BME280;46978;50.288;28.624;2023-04-21T01:26:19;98630.20;;;3.47;91.52
60337;BME280;46978;50.288;28.624;2023-04-21T01:27:21;98628.51;;;3.46;91.38
60337;BME280;46978;50.288;28.624;2023-04-21T01:29:48;98627.64;;;3.40;91.07
60337;BME280;46978;50.288;28.624;2023-04-21T01:30:51;98625.08;;;3.34;90.30
60337;BME280;46978;50.288;28.624;2023-04-21T01:31:53;98627.66;;;3.27;90.54
60337;BME280;46978;50.288;28.624;2023-04-21T01:32:55;98627.66;;;3.27;90.54
60337;BME280;46978;50.288;28.624;2023-04-21T01:33:56;98625.97;;;3.21;90.51
60337;BME280;46978;50.288;28.624;2023-04-21T01:34:58;98623.41;;;3.18;91.46
60337;BME280;46978;50.288;28.624;2023-04-21T01:36:00;98631.94;;;3.17;91.76
60337;BME280;46978;50.288;28.624;2023-04-21T01:37:13;98628.53;;;3.15;92.09
60337;BME280;46978;50.288;28.624;2023-04-21T01:38:11;98625.09;;;3.11;92.12
60337;BME280;46978;50.288;28.624;2023-04-21T01:39:13;98627.66;;;3.10;92.91
60337;BME280;46978;50.288;28.624;2023-04-21T01:40:15;98613.99;;;3.03;93.45
60337;BME280;46978;50.288;28.624;2023-04-21T01:41:17;98631.09;;;3.09;94.02
60337;BME280;46978;50.288;28.624;2023-04-21T01:42:21;98625.97;;;3.05;94.15
60337;BME280;46978;50.288;28.624;2023-04-21T01:43:24;98629.37;;;3.04;94.23
60337;BME280;46978;50.288;28.624;2023-04-21T01:44:26;98630.22;;;3.02;94.16
60337;BME280;46978;50.288;28.624;2023-04-21T01:45:28;98625.97;;;3.02;94.58
60337;BME280;46978;50.288;28.624;2023-04-21T01:46:30;98631.09;;;3.02;94.63
60337;BME280;46978;50.288;28.624;2023-04-21T01:47:32;98633.66;;;3.02;94.84
60337;BME280;46978;50.288;28.624;2023-04-21T01:48:35;98625.97;;;3.01;94.83
60337;BME280;46978;50.288;28.624;2023-04-21T01:49:37;98630.22;;;3.00;94.67
60337;BME280;46978;50.288;28.624;2023-04-21T01:50:39;98630.21;;;2.97;93.92
60337;BME280;46978;50.288;28.624;2023-04-21T01:51:41;98634.49;;;2.94;93.46
60337;BME280;46978;50.288;28.624;2023-04-21T01:52:42;98637.05;;;2.91;93.48
60337;BME280;46978;50.288;28.624;2023-04-21T01:53:44;98633.64;;;2.85;92.76
60337;BME280;46978;50.288;28.624;2023-04-21T01:54:46;98637.04;;;2.81;92.62
60337;BME280;46978;50.288;28.624;2023-04-21T01:55:47;98638.76;;;2.81;93.83
60337;BME280;46978;50.288;28.624;2023-04-21T01:56:49;98637.88;;;2.79;94.12
60337;BME280;46978;50.288;28.624;2023-04-21T01:57:51;98627.63;;;2.76;93.86
60337;BME280;46978;50.288;28.624;2023-04-21T01:58:53;98631.06;;;2.75;93.77
60337;BME280;46978;50.288;28.624;2023-04-21T01:59:55;98628.50;;;2.72;93.86
60337;BME280;46978;50.288;28.624;2023-04-21T02:00:56;98629.34;;;2.69;93.92
60337;BME280;46978;50.288;28.624;2023-04-21T02:01:58;98633.61;;;2.68;93.99
60337;BME280;46978;50.288;28.624;2023-04-21T02:03:00;98635.30;;;2.66;93.82
60337;BME280;46978;50.288;28.624;2023-04-21T02:04:02;98638.73;;;2.64;93.69
60337;BME280;46978;50.288;28.624;2023-04-21T02:05:05;98636.16;;;2.62;94.17
60337;BME280;46978;50.288;28.624;2023-04-21T02:06:07;98636.16;;;2.61;94.12
60337;BME280;46978;50.288;28.624;2023-04-21T02:07:09;98635.31;;;2.59;94.25
60337;BME280;46978;50.288;28.624;2023-04-21T02:08:10;98634.44;;;2.57;94.17
60337;BME280;46978;50.288;28.624;2023-04-21T02:09:12;98636.14;;;2.55;94.34
60337;BME280;46978;50.288;28.624;2023-04-21T02:10:14;98634.42;;;2.52;94.47
60337;BME280;46978;50.288;28.624;2023-04-21T02:11:16;98634.42;;;2.50;95.12
60337;BME280;46978;50.288;28.624;2023-04-21T02:12:17;98635.28;;;2.48;95.20
60337;BME280;46978;50.288;28.624;2023-04-21T02:13:19;98631.00;;;2.45;95.23
60337;BME280;46978;50.288;28.624;2023-04-21T02:14:21;98631.00;;;2.44;95.53
60337;BME280;46978;50.288;28.624;2023-04-21T02:15:23;98628.43;;;2.41;95.56
60337;BME280;46978;50.288;28.624;2023-04-21T02:16:25;98619.02;;;2.37;95.46
60337;BME280;46978;50.288;28.624;2023-04-21T02:17:26;98627.58;;;2.37;95.69
60337;BME280;46978;50.288;28.624;2023-04-21T02:18:28;98625.84;;;2.35;95.68
60337;BME280;46978;50.288;28.624;2023-04-21T02:19:30;98619.01;;;2.33;95.81
60337;BME280;46978;50.288;28.624;2023-04-21T02:20:32;98627.55;;;2.31;95.80
60337;BME280;46978;50.288;28.624;2023-04-21T02:21:33;98624.98;;;2.28;96.19
60337;BME280;46978;50.288;28.624;2023-04-21T02:22:35;98624.10;;;2.26;96.18
60337;BME280;46978;50.288;28.624;2023-04-21T02:23:37;98623.27;;;2.25;96.18
60337;BME280;46978;50.288;28.624;2023-04-21T02:26:02;98618.97;;;2.21;96.12
60337;BME280;46978;50.288;28.624;2023-04-21T02:27:04;98619.84;;;2.20;96.25
60337;BME280;46978;50.288;28.624;2023-04-21T02:28:05;98622.39;;;2.19;96.28
60337;BME280;46978;50.288;28.624;2023-04-21T02:29:07;98617.27;;;2.17;96.38
60337;BME280;46978;50.288;28.624;2023-04-21T02:30:11;98619.83;;;2.15;96.63
60337;BME280;46978;50.288;28.624;2023-04-21T02:31:33;98612.98;;;2.14;96.87
60337;BME280;46978;50.288;28.624;2023-04-21T02:32:35;98619.81;;;2.14;97.01
60337;BME280;46978;50.288;28.624;2023-04-21T02:33:36;98624.92;;;2.11;97.35
60337;BME280;46978;50.288;28.624;2023-04-21T02:34:38;98624.92;;;2.11;97.35
60337;BME280;46978;50.288;28.624;2023-04-21T02:35:40;98621.48;;;2.09;97.10
60337;BME280;46978;50.288;28.624;2023-04-21T02:36:42;98616.35;;;2.06;96.91
60337;BME280;46978;50.288;28.624;2023-04-21T02:37:43;98624.02;;;2.04;97.00
60337;BME280;46978;50.288;28.624;2023-04-21T02:38:45;98619.77;;;2.02;96.94
60337;BME280;46978;50.288;28.624;2023-04-21T02:39:47;98618.03;;;1.97;96.75
60337;BME280;46978;50.288;28.624;2023-04-21T02:40:49;98616.30;;;1.93;96.68
60337;BME280;46978;50.288;28.624;2023-04-21T02:41:51;98611.17;;;1.90;97.19
60337;BME280;46978;50.288;28.624;2023-04-21T02:42:53;98617.14;;;1.86;97.53
60337;BME280;46978;50.288;28.624;2023-04-21T02:43:54;98618.81;;;1.84;97.61
60337;BME280;46978;50.288;28.624;2023-04-21T02:45:16;98617.12;;;1.83;97.81
60337;BME280;46978;50.288;28.624;2023-04-21T02:46:18;98625.64;;;1.84;98.09
60337;BME280;46978;50.288;28.624;2023-04-21T02:47:19;98623.93;;;1.84;98.40
60337;BME280;46978;50.288;28.624;2023-04-21T02:48:21;98620.53;;;1.85;98.10
60337;BME280;46978;50.288;28.624;2023-04-21T02:49:22;98622.24;;;1.83;97.65
60337;BME280;46978;50.288;28.624;2023-04-21T02:50:26;98617.97;;;1.82;97.67
60337;BME280;46978;50.288;28.624;2023-04-21T02:51:28;98629.03;;;1.81;97.59
60337;BME280;46978;50.288;28.624;2023-04-21T02:52:30;98638.42;;;1.81;97.52
60337;BME280;46978;50.288;28.624;2023-04-21T02:53:31;98631.59;;;1.81;98.58
60337;BME280;46978;50.288;28.624;2023-04-21T02:54:33;98629.91;;;1.82;100.00
60337;BME280;46978;50.288;28.624;2023-04-21T02:55:35;98623.08;;;1.82;100.00
60337;BME280;46978;50.288;28.624;2023-04-21T02:56:36;98629.91;;;1.82;100.00
60337;BME280;46978;50.288;28.624;2023-04-21T02:57:38;98627.34;;;1.82;100.00
60337;BME280;46978;50.288;28.624;2023-04-21T02:58:40;98629.91;;;1.82;100.00
60337;BME280;46978;50.288;28.624;2023-04-21T02:59:41;98628.20;;;1.82;100.00
60337;BME280;46978;50.288;28.624;2023-04-21T03:00:43;98631.59;;;1.81;100.00
60337;BME280;46978;50.288;28.624;2023-04-21T03:01:45;98630.74;;;1.81;100.00
60337;BME280;46978;50.288;28.624;2023-04-21T03:02:46;98635.02;;;1.80;99.89
60337;BME280;46978;50.288;28.624;2023-04-21T03:03:48;98639.25;;;1.78;99.78
60337;BME280;46978;50.288;28.624;2023-04-21T03:04:50;98634.99;;;1.75;98.72
60337;BME280;46978;50.288;28.624;2023-04-21T03:05:59;98640.09;;;1.72;98.64
60337;BME280;46978;50.288;28.624;2023-04-21T03:07:02;98643.47;;;1.70;98.71
60337;BME280;46978;50.288;28.624;2023-04-21T03:08:06;98638.34;;;1.67;99.08
60337;BME280;46978;50.288;28.624;2023-04-21T03:09:07;98636.62;;;1.66;99.20
60337;BME280;46978;50.288;28.624;2023-04-21T03:10:09;98629.81;;;1.65;99.27
60337;BME280;46978;50.288;28.624;2023-04-21T03:11:12;98623.80;;;1.61;99.26
60337;BME280;46978;50.288;28.624;2023-04-21T03:12:13;98628.08;;;1.60;99.57
60337;BME280;46978;50.288;28.624;2023-04-21T03:13:15;98630.64;;;1.62;99.83
60337;BME280;46978;50.288;28.624;2023-04-21T03:14:17;98632.35;;;1.61;99.88
60337;BME280;46978;50.288;28.624;2023-04-21T03:15:18;98634.90;;;1.60;99.80
60337;BME280;46978;50.288;28.624;2023-04-21T03:16:20;98635.75;;;1.60;99.93
60337;BME280;46978;50.288;28.624;2023-04-21T03:17:22;98633.18;;;1.59;100.00
60337;BME280;46978;50.288;28.624;2023-04-21T03:18:24;98643.42;;;1.60;100.00
60337;BME280;46978;50.288;28.624;2023-04-21T03:19:25;98641.70;;;1.59;100.00
60337;BME280;46978;50.288;28.624;2023-04-21T03:20:27;98648.53;;;1.60;100.00
60337;BME280;46978;50.288;28.624;2023-04-21T03:21:29;98643.42;;;1.60;100.00
60337;BME280;46978;50.288;28.624;2023-04-21T03:22:52;98640.86;;;1.60;100.00
60337;BME280;46978;50.288;28.624;2023-04-21T03:23:53;98634.90;;;1.60;100.00
60337;BME280;46978;50.288;28.624;2023-04-21T03:24:55;98640.85;;;1.59;99.68
60337;BME280;46978;50.288;28.624;2023-04-21T03:25:57;98638.30;;;1.60;99.99
60337;BME280;46978;50.288;28.624;2023-04-21T03:26:59;98645.14;;;1.61;100.00
60337;BME280;46978;50.288;28.624;2023-04-21T03:28:00;98634.91;;;1.61;100.00
60337;BME280;46978;50.288;28.624;2023-04-21T03:29:02;98643.44;;;1.64;100.00
60337;BME280;46978;50.288;28.624;2023-04-21T03:30:05;98642.61;;;1.66;100.00
60337;BME280;46978;50.288;28.624;2023-04-21T03:31:07;98645.17;;;1.66;100.00
60337;BME280;46978;50.288;28.624;2023-04-21T03:32:10;98640.06;;;1.68;100.00
60337;BME280;46978;50.288;28.624;2023-04-21T03:33:11;98646.04;;;1.71;100.00
60337;BME280;46978;50.288;28.624;2023-04-21T03:34:13;98639.23;;;1.76;100.00
60337;BME280;46978;50.288;28.624;2023-04-21T03:35:15;98641.81;;;1.79;100.00
60337;BME280;46978;50.288;28.624;2023-04-21T03:36:16;98638.45;;;1.87;100.00
60337;BME280;46978;50.288;28.624;2023-04-21T03:37:18;98644.45;;;1.96;100.00
60337;BME280;46978;50.288;28.624;2023-04-21T03:38:20;98640.25;;;2.05;100.00
60337;BME280;46978;50.288;28.624;2023-04-21T03:39:22;98642.86;;;2.15;100.00
60337;BME280;46978;50.288;28.624;2023-04-21T03:40:23;98647.15;;;2.27;100.00
60337;BME280;46978;50.288;28.624;2023-04-21T03:41:25;98642.06;;;2.40;100.00
60337;BME280;46978;50.288;28.624;2023-04-21T03:42:27;98647.23;;;2.52;100.00
60337;BME280;46978;50.288;28.624;2023-04-21T03:43:28;98643.86;;;2.65;99.81
60337;BME280;46978;50.288;28.624;2023-04-21T03:44:30;98638.74;;;2.72;99.54
60337;BME280;46978;50.288;28.624;2023-04-21T03:45:34;98638.75;;;2.75;99.12
60337;BME280;46978;50.288;28.624;2023-04-21T03:46:36;98644.72;;;2.78;98.77
60337;BME280;46978;50.288;28.624;2023-04-21T03:47:38;98649.00;;;2.78;98.03
60337;BME280;46978;50.288;28.624;2023-04-21T03:48:39;98648.12;;;2.76;97.77
60337;BME280;46978;50.288;28.624;2023-04-21T03:49:41;98651.55;;;2.73;97.50
60337;BME280;46978;50.288;28.624;2023-04-21T03:50:43;98646.43;;;2.73;97.73
60337;BME280;46978;50.288;28.624;2023-04-21T03:51:45;98643.87;;;2.73;97.52
60337;BME280;46978;50.288;28.624;2023-04-21T03:52:47;98648.11;;;2.71;97.36
60337;BME280;46978;50.288;28.624;2023-04-21T03:53:48;98642.15;;;2.72;97.15
60337;BME280;46978;50.288;28.624;2023-04-21T03:54:50;98645.55;;;2.71;96.88
60337;BME280;46978;50.288;28.624;2023-04-21T03:55:52;98649.83;;;2.71;97.01
60337;BME280;46978;50.288;28.624;2023-04-21T03:56:53;98645.55;;;2.69;97.14
60337;BME280;46978;50.288;28.624;2023-04-21T03:57:55;98639.59;;;2.72;97.36
60337;BME280;46978;50.288;28.624;2023-04-21T03:58:57;98649.00;;;2.76;97.00
60337;BME280;46978;50.288;28.624;2023-04-21T03:59:58;98643.00;;;2.77;96.89
60337;BME280;46978;50.288;28.624;2023-04-21T04:01:00;98644.73;;;2.80;97.02
60337;BME280;46978;50.288;28.624;2023-04-21T04:02:02;98645.57;;;2.82;96.81
60337;BME280;46978;50.288;28.624;2023-04-21T04:03:04;98650.70;;;2.85;96.95
60337;BME280;46978;50.288;28.624;2023-04-21T04:04:06;98649.02;;;2.87;96.76
60337;BME280;46978;50.288;28.624;2023-04-21T04:05:07;98648.14;;;2.90;97.37
60337;BME280;46978;50.288;28.624;2023-04-21T04:06:10;98652.43;;;2.92;97.85
60337;BME280;46978;50.288;28.624;2023-04-21T04:07:11;98646.46;;;2.95;98.18
60337;BME280;46978;50.288;28.624;2023-04-21T04:08:13;98643.91;;;2.99;98.02
60337;BME280;46978;50.288;28.624;2023-04-21T04:09:14;98646.47;;;3.01;98.32
60337;BME280;46978;50.288;28.624;2023-04-21T04:10:16;98651.59;;;3.02;98.50
60337;BME280;46978;50.288;28.624;2023-04-21T04:11:18;98646.47;;;3.07;98.69
60337;BME280;46978;50.288;28.624;2023-04-21T04:12:20;98648.16;;;3.11;98.71
60337;BME280;46978;50.288;28.624;2023-04-21T04:13:22;98655.01;;;3.12;98.83
60337;BME280;46978;50.288;28.624;2023-04-21T04:14:24;98641.34;;;3.21;98.58
60337;BME280;46978;50.288;28.624;2023-04-21T04:15:26;98652.45;;;3.25;98.99
60337;BME280;46978;50.288;28.624;2023-04-21T04:16:28;98652.45;;;3.25;98.99
60337;BME280;46978;50.288;28.624;2023-04-21T04:17:29;98654.17;;;3.27;98.87
60337;BME280;46978;50.288;28.624;2023-04-21T04:18:31;98650.72;;;3.31;98.26
60337;BME280;46978;50.288;28.624;2023-04-21T04:19:33;98648.16;;;3.31;98.48
60337;BME280;46978;50.288;28.624;2023-04-21T04:20:34;98649.03;;;3.35;98.72
60337;BME280;46978;50.288;28.624;2023-04-21T04:21:37;98654.16;;;3.36;98.62
60337;BME280;46978;50.288;28.624;2023-04-21T04:22:39;98663.55;;;3.36;98.66
60337;BME280;46978;50.288;28.624;2023-04-21T04:23:40;98662.70;;;3.38;98.87
60337;BME280;46978;50.288;28.624;2023-04-21T04:24:42;98656.72;;;3.41;98.62
60337;BME280;46978;50.288;28.624;2023-04-21T04:25:43;98652.44;;;3.41;98.25
60337;BME280;46978;50.288;28.624;2023-04-21T04:26:45;98661.86;;;3.39;98.47
60337;BME280;46978;50.288;28.624;2023-04-21T04:27:47;98668.67;;;3.39;98.49
60337;BME280;46978;50.288;28.624;2023-04-21T04:28:48;98670.39;;;3.38;98.61
60337;BME280;46978;50.288;28.624;2023-04-21T04:29:50;98654.16;;;3.39;98.83
60337;BME280;46978;50.288;28.624;2023-04-21T04:30:52;98662.70;;;3.41;98.92
60337;BME280;46978;50.288;28.624;2023-04-21T04:31:53;98655.00;;;3.43;99.04
60337;BME280;46978;50.288;28.624;2023-04-21T04:32:55;98657.56;;;3.43;98.83
60337;BME280;46978;50.288;28.624;2023-04-21T04:33:57;98660.97;;;3.47;98.99
60337;BME280;46978;50.288;28.624;2023-04-21T04:34:58;98662.69;;;3.51;99.24
60337;BME280;46978;50.288;28.624;2023-04-21T04:36:00;98661.84;;;3.56;99.40
60337;BME280;46978;50.288;28.624;2023-04-21T04:37:02;98662.67;;;3.62;99.16
60337;BME280;46978;50.288;28.624;2023-04-21T04:38:04;98660.95;;;3.67;99.23
60337;BME280;46978;50.288;28.624;2023-04-21T04:39:05;98657.52;;;3.74;99.36
60337;BME280;46978;50.288;28.624;2023-04-21T04:40:08;98660.92;;;3.81;99.44
60337;BME280;46978;50.288;28.624;2023-04-21T04:41:09;98655.78;;;3.87;99.21
60337;BME280;46978;50.288;28.624;2023-04-21T04:42:11;98658.33;;;3.91;98.92
60337;BME280;46978;50.288;28.624;2023-04-21T04:43:12;98659.20;;;3.95;99.03
60337;BME280;46978;50.288;28.624;2023-04-21T04:44:14;98664.28;;;4.01;99.15
60337;BME280;46978;50.288;28.624;2023-04-21T04:45:16;98662.58;;;4.05;99.09
60337;BME280;46978;50.288;28.624;2023-04-21T04:46:17;98655.70;;;4.10;98.75
60337;BME280;46978;50.288;28.624;2023-04-21T04:47:19;98664.24;;;4.13;98.25
60337;BME280;46978;50.288;28.624;2023-04-21T04:48:21;98671.09;;;4.15;98.26
60337;BME280;46978;50.288;28.624;2023-04-21T04:49:22;98668.52;;;4.16;98.07
60337;BME280;46978;50.288;28.624;2023-04-21T04:50:24;98665.94;;;4.21;98.41
60337;BME280;46978;50.288;28.624;2023-04-21T04:51:26;98659.06;;;4.26;98.31
60337;BME280;46978;50.288;28.624;2023-04-21T04:52:28;98660.77;;;4.30;98.06
60337;BME280;46978;50.288;28.624;2023-04-21T04:53:30;98666.73;;;4.35;98.13
60337;BME280;46978;50.288;28.624;2023-04-21T04:54:32;98672.73;;;4.39;98.26
60337;BME280;46978;50.288;28.624;2023-04-21T04:55:33;98658.98;;;4.44;98.12
60337;BME280;46978;50.288;28.624;2023-04-21T04:56:35;98660.67;;;4.52;98.20
60337;BME280;46978;50.288;28.624;2023-04-21T04:57:37;98661.47;;;4.60;98.11
60337;BME280;46978;50.288;28.624;2023-04-21T04:58:38;98663.16;;;4.65;97.63
60337;BME280;46978;50.288;28.624;2023-04-21T04:59:40;98658.01;;;4.69;97.30
60337;BME280;46978;50.288;28.624;2023-04-21T05:00:42;98654.59;;;4.70;97.06
60337;BME280;46978;50.288;28.624;2023-04-21T05:01:44;98663.12;;;4.73;97.14
60337;BME280;46978;50.288;28.624;2023-04-21T05:02:45;98652.83;;;4.75;97.15
60337;BME280;46978;50.288;28.624;2023-04-21T05:03:47;98663.94;;;4.78;97.35
60337;BME280;46978;50.288;28.624;2023-04-21T05:04:49;98662.20;;;4.87;97.70
60337;BME280;46978;50.288;28.624;2023-04-21T05:05:51;98657.84;;;4.95;97.91
60337;BME280;46978;50.288;28.624;2023-04-21T05:06:53;98655.23;;;5.01;97.13
60337;BME280;46978;50.288;28.624;2023-04-21T05:07:55;98658.64;;;5.03;96.50
60337;BME280;46978;50.288;28.624;2023-04-21T05:08:57;98656.05;;;5.06;96.59
60337;BME280;46978;50.288;28.624;2023-04-21T05:09:59;98662.88;;;5.12;96.49
60337;BME280;46978;50.288;28.624;2023-04-21T05:11:01;98667.10;;;5.20;96.23
60337;BME280;46978;50.288;28.624;2023-04-21T05:12:03;98666.17;;;5.28;95.73
60337;BME280;46978;50.288;28.624;2023-04-21T05:13:05;98658.41;;;5.32;93.62
60337;BME280;46978;50.288;28.624;2023-04-21T05:14:07;98656.64;;;5.37;94.23
60337;BME280;46978;50.288;28.624;2023-04-21T05:15:09;98671.17;;;5.45;94.49
60337;BME280;46978;50.288;28.624;2023-04-21T05:16:12;98666.79;;;5.54;94.54
60337;BME280;46978;50.288;28.624;2023-04-21T05:17:13;98659.87;;;5.63;93.62
60337;BME280;46978;50.288;28.624;2023-04-21T05:18:15;98652.95;;;5.68;92.98
60337;BME280;46978;50.288;28.624;2023-04-21T05:19:17;98671.77;;;5.73;92.69
60337;BME280;46978;50.288;28.624;2023-04-21T05:20:19;98671.69;;;5.81;92.60
60337;BME280;46978;50.288;28.624;2023-04-21T05:21:24;98661.34;;;5.85;92.13
60337;BME280;46978;50.288;28.624;2023-04-21T05:22:26;98660.44;;;5.91;91.26
60337;BME280;46978;50.288;28.624;2023-04-21T05:23:28;98662.93;;;6.02;91.80
60337;BME280;46978;50.288;28.624;2023-04-21T05:24:30;98654.23;;;6.12;91.71
60337;BME280;46978;50.288;28.624;2023-04-21T05:25:33;98671.27;;;6.22;91.26
60337;BME280;46978;50.288;28.624;2023-04-21T05:26:34;98660.84;;;6.33;89.83
60337;BME280;46978;50.288;28.624;2023-04-21T05:27:36;98650.45;;;6.39;89.25
60337;BME280;46978;50.288;28.624;2023-04-21T05:28:38;98658.13;;;6.44;88.91
60337;BME280;46978;50.288;28.624;2023-04-21T05:29:39;98661.48;;;6.52;88.81
60337;BME280;46978;50.288;28.624;2023-04-21T05:30:41;98669.08;;;6.60;87.47
60337;BME280;46978;50.288;28.624;2023-04-21T05:31:43;98663.02;;;6.64;86.12